createdAt,value
2018-01-05T00:00:21.791Z,973.3467
2018-01-05T00:01:21.834Z,973.304
2018-01-05T00:02:21.805Z,973.2715
2018-01-05T00:03:21.751Z,973.2312
2018-01-05T00:04:21.729Z,973.3117
2018-01-05T00:05:21.746Z,973.2849
2018-01-05T00:06:21.729Z,973.3117
2018-01-05T00:07:21.751Z,973.2662
2018-01-05T00:08:21.744Z,973.3572
2018-01-05T00:09:21.753Z,973.3385
2018-01-05T00:10:21.758Z,973.2901
2018-01-05T00:11:21.749Z,973.4057
2018-01-05T00:12:21.737Z,973.3357
2018-01-05T00:13:21.735Z,973.3976
2018-01-05T00:14:21.759Z,973.4699
2018-01-05T00:15:21.758Z,973.4998
2018-01-05T00:16:21.758Z,973.4326
2018-01-05T00:17:23.327Z,973.4647
2018-01-05T00:18:21.744Z,973.4244
2018-01-05T00:19:21.742Z,973.4215
2018-01-05T00:20:21.773Z,973.5103
2018-01-05T00:21:21.752Z,973.658
2018-01-05T00:22:21.746Z,973.6609
2018-01-05T00:23:21.755Z,973.6796
2018-01-05T00:24:21.743Z,973.564
2018-01-05T00:25:21.787Z,973.6474
2018-01-05T00:26:21.771Z,973.8085
2018-01-05T00:27:21.748Z,973.8273
2018-01-05T00:28:21.754Z,973.8085
2018-01-05T00:29:21.749Z,973.9481
2018-01-05T00:30:21.804Z,973.9832
2018-01-05T00:31:21.767Z,973.9995
2018-01-05T00:32:21.770Z,973.9592
2018-01-05T00:33:21.774Z,973.9779
2018-01-05T00:34:21.752Z,973.9592
2018-01-05T00:35:21.800Z,973.9995
2018-01-05T00:36:21.758Z,974.0263
2018-01-05T00:37:21.758Z,973.9995
2018-01-05T00:38:21.760Z,973.9995
2018-01-05T00:39:21.782Z,974.0263
2018-01-05T00:40:21.789Z,974.0316
2018-01-05T00:41:21.762Z,974.1471
2018-01-05T00:42:21.763Z,974.08
2018-01-05T00:43:21.782Z,974.2277
2018-01-05T00:44:21.764Z,974.2224
2018-01-05T00:45:21.980Z,974.2896
2018-01-05T00:46:21.772Z,974.2196
2018-01-05T00:47:24.591Z,974.2762
2018-01-05T00:48:24.885Z,974.2062
2018-01-05T00:49:21.782Z,974.233
2018-01-05T00:50:25.296Z,974.2114
2018-01-05T00:51:21.787Z,974.2733
2018-01-05T00:52:21.776Z,974.3218
2018-01-05T00:53:22.936Z,974.3135
2018-01-05T00:54:21.770Z,974.3621
2018-01-05T00:55:21.796Z,974.3486
2018-01-05T00:56:21.806Z,974.3
2018-01-05T00:57:21.779Z,974.4128
2018-01-05T00:58:21.778Z,974.4799
2018-01-05T00:59:27.719Z,974.4263
2018-01-05T01:00:21.808Z,974.2867
2018-01-05T01:01:21.790Z,974.4531
2018-01-05T01:02:21.787Z,974.7082
2018-01-05T01:03:21.783Z,974.609
2018-01-05T01:04:21.780Z,974.7515
2018-01-05T01:05:21.905Z,974.6843
2018-01-05T01:06:21.786Z,974.8641
2018-01-05T01:07:21.817Z,974.9097
2018-01-05T01:08:22.055Z,974.8186
2018-01-05T01:09:27.018Z,974.8963
2018-01-05T01:10:24.250Z,974.9179
2018-01-05T01:11:21.885Z,974.9366
2018-01-05T01:12:34.916Z,975.0843
2018-01-05T01:13:21.793Z,975.0066
2018-01-05T01:14:21.793Z,974.9476
2018-01-05T01:15:22.007Z,974.9984
2018-01-05T01:16:21.797Z,975.0977
2018-01-05T01:17:23.565Z,975.0252
2018-01-05T01:18:35.561Z,975.0871
2018-01-05T01:19:22.010Z,975.0709
2018-01-05T01:20:21.859Z,975.079
2018-01-05T01:21:22.393Z,975.0305
2018-01-05T01:22:21.799Z,975.0924
2018-01-05T01:23:43.080Z,975.0627
2018-01-05T01:24:21.816Z,975.0709
2018-01-05T01:25:21.831Z,974.9768
2018-01-05T01:26:21.885Z,975.044
2018-01-05T01:27:21.799Z,975.0574
2018-01-05T01:28:21.865Z,975.0843
2018-01-05T01:29:21.821Z,975.0411
2018-01-05T01:30:21.840Z,975.0276
2018-01-05T01:31:21.869Z,975.0761
2018-01-05T01:32:21.824Z,975.1619
2018-01-05T01:33:21.818Z,975.0492
2018-01-05T01:34:21.899Z,975.0948
2018-01-05T01:35:21.853Z,975.1619
2018-01-05T01:36:21.821Z,975.0463
2018-01-05T01:37:21.812Z,975.103
2018-01-05T01:38:21.826Z,975.1888
2018-01-05T01:39:21.843Z,975.1537
2018-01-05T01:40:21.873Z,975.1243
2018-01-05T01:41:21.904Z,975.2425
2018-01-05T01:42:21.832Z,975.194
2018-01-05T01:43:21.845Z,975.1646
2018-01-05T01:44:21.834Z,975.2504
2018-01-05T01:45:21.840Z,975.178
2018-01-05T01:46:21.823Z,975.1699
2018-01-05T01:47:21.819Z,975.2317
2018-01-05T01:48:21.854Z,975.3176
2018-01-05T01:49:21.821Z,975.2639
2018-01-05T01:50:21.901Z,975.2692
2018-01-05T01:51:21.825Z,975.199
2018-01-05T01:52:21.840Z,975.1588
2018-01-05T01:53:21.858Z,975.2371
2018-01-05T01:54:21.854Z,975.2207
2018-01-05T01:55:21.873Z,975.1938
2018-01-05T01:56:21.851Z,975.2662
2018-01-05T01:57:21.864Z,975.1669
2018-01-05T01:58:21.836Z,975.2393
2018-01-05T01:59:21.842Z,975.1454
2018-01-05T02:00:21.862Z,975.1104
2018-01-05T02:01:21.841Z,975.0969
2018-01-05T02:02:21.851Z,975.2446
2018-01-05T02:03:21.916Z,975.3304
2018-01-05T02:04:21.839Z,975.2207
2018-01-05T02:05:22.718Z,975.1827
2018-01-05T02:06:21.875Z,975.2073
2018-01-05T02:07:21.850Z,975.261
2018-01-05T02:08:21.857Z,975.3953
2018-01-05T02:09:21.845Z,975.3253
2018-01-05T02:10:21.867Z,975.3065
2018-01-05T02:11:21.849Z,975.4006
2018-01-05T02:12:21.849Z,975.4006
2018-01-05T02:13:21.877Z,975.4863
2018-01-05T02:14:21.906Z,975.4379
2018-01-05T02:15:21.879Z,975.3895
2018-01-05T02:16:21.844Z,975.4699
2018-01-05T02:17:21.853Z,975.4431
2018-01-05T02:18:21.942Z,975.4244
2018-01-05T02:19:21.855Z,975.4163
2018-01-05T02:20:21.900Z,975.3976
2018-01-05T02:21:21.874Z,975.4565
2018-01-05T02:22:21.852Z,975.4349
2018-01-05T02:23:24.517Z,975.4163
2018-01-05T02:24:21.867Z,975.3678
2018-01-05T02:25:21.943Z,975.4133
2018-01-05T02:26:21.873Z,975.3836
2018-01-05T02:27:21.867Z,975.4373
2018-01-05T02:28:21.879Z,975.4052
2018-01-05T02:29:21.859Z,975.4939
2018-01-05T02:30:22.729Z,975.4724
2018-01-05T02:31:21.889Z,975.5126
2018-01-05T02:32:21.868Z,975.4694
2018-01-05T02:33:21.874Z,975.3054
2018-01-05T02:34:21.883Z,975.4537
2018-01-05T02:35:21.895Z,975.456
2018-01-05T02:36:21.875Z,975.4612
2018-01-05T02:37:21.875Z,975.62
2018-01-05T02:38:21.870Z,975.3725
2018-01-05T02:39:21.874Z,975.4589
2018-01-05T02:40:21.923Z,975.4105
2018-01-05T02:41:21.899Z,975.4186
2018-01-05T02:42:21.878Z,975.4157
2018-01-05T02:43:21.942Z,975.4641
2018-01-05T02:44:21.902Z,975.4402
2018-01-05T02:45:21.909Z,975.5313
2018-01-05T02:46:21.894Z,975.4537
2018-01-05T02:47:21.880Z,975.5237
2018-01-05T02:48:21.905Z,975.5477
2018-01-05T02:49:21.883Z,975.4455
2018-01-05T02:50:21.932Z,975.4105
2018-01-05T02:51:21.902Z,975.4238
2018-01-05T02:52:22.681Z,975.421
2018-01-05T02:53:21.898Z,975.4076
2018-01-05T02:54:21.905Z,975.5045
2018-01-05T02:55:21.904Z,975.456
2018-01-05T02:56:21.899Z,975.5068
2018-01-05T02:57:21.893Z,975.4537
2018-01-05T02:58:21.912Z,975.5207
2018-01-05T02:59:21.887Z,975.5266
2018-01-05T03:00:21.906Z,975.4355
2018-01-05T03:01:21.923Z,975.3818
2018-01-05T03:02:21.899Z,975.5003
2018-01-05T03:03:21.904Z,975.425
2018-01-05T03:04:21.917Z,975.3873
2018-01-05T03:05:21.902Z,975.4199
2018-01-05T03:06:21.915Z,975.3126
2018-01-05T03:07:21.958Z,975.396
2018-01-05T03:08:21.897Z,975.3079
2018-01-05T03:09:21.902Z,975.3452
2018-01-05T03:10:21.899Z,975.3698
2018-01-05T03:11:21.915Z,975.3242
2018-01-05T03:12:21.947Z,975.3406
2018-01-05T03:13:21.903Z,975.2491
2018-01-05T03:14:22.090Z,975.3137
2018-01-05T03:15:21.910Z,975.2626
2018-01-05T03:16:22.724Z,975.2841
2018-01-05T03:17:21.919Z,975.2385
2018-01-05T03:18:29.930Z,975.3354
2018-01-05T03:19:21.916Z,975.3787
2018-01-05T03:20:21.918Z,975.2869
2018-01-05T03:21:21.931Z,975.3279
2018-01-05T03:22:21.938Z,975.3331
2018-01-05T03:23:21.927Z,975.2473
2018-01-05T03:24:21.917Z,975.2905
2018-01-05T03:25:21.940Z,975.2531
2018-01-05T03:26:21.968Z,975.3363
2018-01-05T03:27:21.938Z,975.2584
2018-01-05T03:28:21.947Z,975.3068
2018-01-05T03:29:27.319Z,975.2665
2018-01-05T03:30:21.943Z,975.2773
2018-01-05T03:31:22.143Z,975.2988
2018-01-05T03:32:21.963Z,975.2854
2018-01-05T03:33:21.943Z,975.2183
2018-01-05T03:34:21.940Z,975.2078
2018-01-05T03:35:21.963Z,975.248
2018-01-05T03:36:21.951Z,975.2024
2018-01-05T03:37:21.941Z,975.2054
2018-01-05T03:38:21.943Z,975.286
2018-01-05T03:39:21.946Z,975.3479
2018-01-05T03:40:22.033Z,975.3479
2018-01-05T03:41:22.049Z,975.2538
2018-01-05T03:42:21.949Z,975.3806
2018-01-05T03:43:22.065Z,975.3293
2018-01-05T03:44:22.037Z,975.3755
2018-01-05T03:45:21.955Z,975.3726
2018-01-05T03:46:22.161Z,975.3591
2018-01-05T03:47:21.991Z,975.3889
2018-01-05T03:48:21.991Z,975.3755
2018-01-05T03:49:22.073Z,975.2867
2018-01-05T03:50:22.804Z,975.3918
2018-01-05T03:51:22.082Z,975.3597
2018-01-05T03:52:22.066Z,975.3948
2018-01-05T03:53:21.983Z,975.3544
2018-01-05T03:54:21.948Z,975.3707
2018-01-05T03:55:21.962Z,975.3842
2018-01-05T03:56:23.013Z,975.341
2018-01-05T03:57:21.993Z,975.4163
2018-01-05T03:58:21.952Z,975.532
2018-01-05T03:59:21.985Z,975.4244
2018-01-05T04:00:21.947Z,975.4677
2018-01-05T04:01:22.014Z,975.5588
2018-01-05T04:02:21.955Z,975.4514
2018-01-05T04:03:21.962Z,975.5454
2018-01-05T04:04:21.952Z,975.5588
2018-01-05T04:05:21.968Z,975.5132
2018-01-05T04:06:22.028Z,975.5051
2018-01-05T04:07:21.989Z,975.4297
2018-01-05T04:08:21.964Z,975.5886
2018-01-05T04:09:21.971Z,975.5991
2018-01-05T04:10:21.954Z,975.5535
2018-01-05T04:11:22.016Z,975.4888
2018-01-05T04:12:21.961Z,975.435
2018-01-05T04:13:21.965Z,975.5559
2018-01-05T04:14:21.965Z,975.5209
2018-01-05T04:15:21.962Z,975.4619
2018-01-05T04:16:21.979Z,975.4724
2018-01-05T04:17:21.979Z,975.4993
2018-01-05T04:18:21.966Z,975.5262
2018-01-05T04:19:21.960Z,975.5232
2018-01-05T04:20:22.012Z,975.5742
2018-01-05T04:21:21.993Z,975.6682
2018-01-05T04:22:21.978Z,975.6547
2018-01-05T04:23:21.977Z,975.601
2018-01-05T04:24:22.003Z,975.6682
2018-01-05T04:25:21.999Z,975.6196
2018-01-05T04:26:22.018Z,975.6599
2018-01-05T04:27:22.055Z,975.6682
2018-01-05T04:28:24.954Z,975.6921
2018-01-05T04:29:22.016Z,975.6652
2018-01-05T04:30:21.999Z,975.6708
2018-01-05T04:31:22.021Z,975.7137
2018-01-05T04:32:21.980Z,975.7082
2018-01-05T04:33:21.986Z,975.6921
2018-01-05T04:34:21.985Z,975.7488
2018-01-05T04:35:21.981Z,975.7324
2018-01-05T04:36:22.304Z,975.7432
2018-01-05T04:37:21.994Z,975.7727
2018-01-05T04:38:22.006Z,975.7593
2018-01-05T04:39:21.989Z,975.6439
2018-01-05T04:40:22.000Z,975.6439
2018-01-05T04:41:22.134Z,975.7537
2018-01-05T04:42:22.014Z,975.641
2018-01-05T04:43:21.989Z,975.6463
2018-01-05T04:44:22.000Z,975.762
2018-01-05T04:45:21.991Z,975.7374
2018-01-05T04:46:24.079Z,975.7001
2018-01-05T04:47:22.003Z,975.7269
2018-01-05T04:48:22.049Z,975.6918
2018-01-05T04:49:22.014Z,975.7621
2018-01-05T04:50:21.989Z,975.7405
2018-01-05T04:51:22.071Z,975.8427
2018-01-05T04:52:22.021Z,975.8346
2018-01-05T04:53:22.002Z,975.7324
2018-01-05T04:54:21.999Z,975.8104
2018-01-05T04:55:22.015Z,975.7648
2018-01-05T04:56:22.047Z,975.7917
2018-01-05T04:57:22.002Z,975.7996
2018-01-05T04:58:22.062Z,975.9503
2018-01-05T04:59:24.624Z,975.8104
2018-01-05T05:00:22.012Z,975.8667
2018-01-05T05:01:22.026Z,975.8022
2018-01-05T05:02:22.037Z,975.8344
2018-01-05T05:03:22.024Z,975.8881
2018-01-05T05:04:22.005Z,975.8986
2018-01-05T05:05:21.999Z,975.8851
2018-01-05T05:06:22.027Z,975.9091
2018-01-05T05:07:22.012Z,975.9681
2018-01-05T05:08:22.015Z,975.9144
2018-01-05T05:09:22.021Z,975.8928
2018-01-05T05:10:22.127Z,976.0137
2018-01-05T05:11:22.039Z,975.9167
2018-01-05T05:12:22.028Z,976.0616
2018-01-05T05:13:22.023Z,975.8735
2018-01-05T05:14:22.019Z,976.0724
2018-01-05T05:15:22.018Z,975.9434
2018-01-05T05:16:22.049Z,975.8977
2018-01-05T05:17:22.040Z,975.9649
2018-01-05T05:18:22.023Z,975.9352
2018-01-05T05:19:22.020Z,975.938
2018-01-05T05:20:22.026Z,975.9702
2018-01-05T05:21:22.076Z,975.9352
2018-01-05T05:22:22.027Z,975.9434
2018-01-05T05:23:22.023Z,975.9755
2018-01-05T05:24:22.028Z,975.7845
2018-01-05T05:25:22.066Z,975.9592
2018-01-05T05:26:22.053Z,975.9726
2018-01-05T05:27:22.056Z,975.9025
2018-01-05T05:28:22.039Z,975.9965
2018-01-05T05:29:22.052Z,976.0234
2018-01-05T05:30:22.058Z,975.9399
2018-01-05T05:31:22.051Z,976.0502
2018-01-05T05:32:22.030Z,976.0018
2018-01-05T05:33:22.032Z,975.9773
2018-01-05T05:34:22.047Z,976.0684
2018-01-05T05:35:22.046Z,976.0494
2018-01-05T05:36:22.101Z,976.0383
2018-01-05T05:37:22.037Z,976.1615
2018-01-05T05:38:22.047Z,976.0511
2018-01-05T05:39:22.058Z,976.1451
2018-01-05T05:40:22.089Z,976.0721
2018-01-05T05:41:22.071Z,976.0751
2018-01-05T05:42:22.045Z,975.9971
2018-01-05T05:43:22.059Z,976.0508
2018-01-05T05:44:22.046Z,976.1046
2018-01-05T05:45:22.048Z,976.1583
2018-01-05T05:46:22.124Z,976.1957
2018-01-05T05:47:22.042Z,976.1501
2018-01-05T05:48:22.458Z,976.1606
2018-01-05T05:49:22.048Z,976.1635
2018-01-05T05:50:22.053Z,976.2277
2018-01-05T05:51:22.053Z,976.1174
2018-01-05T05:52:22.419Z,976.2383
2018-01-05T05:53:22.066Z,976.2383
2018-01-05T05:54:22.063Z,976.3242
2018-01-05T05:55:22.080Z,976.2972
2018-01-05T05:56:22.064Z,976.2517
2018-01-05T05:57:22.079Z,976.3323
2018-01-05T05:58:22.369Z,976.2838
2018-01-05T05:59:22.057Z,976.3323
2018-01-05T06:00:22.062Z,976.2674
2018-01-05T06:01:22.067Z,976.351
2018-01-05T06:02:22.092Z,976.3644
2018-01-05T06:03:22.066Z,976.3533
2018-01-05T06:04:22.089Z,976.3562
2018-01-05T06:05:22.057Z,976.3451
2018-01-05T06:06:22.068Z,976.4099
2018-01-05T06:07:22.115Z,976.3801
2018-01-05T06:08:22.088Z,976.4204
2018-01-05T06:09:22.067Z,976.4175
2018-01-05T06:10:22.074Z,976.3906
2018-01-05T06:11:22.064Z,976.5145
2018-01-05T06:12:22.069Z,976.4525
2018-01-05T06:13:22.101Z,976.4578
2018-01-05T06:14:22.077Z,976.5249
2018-01-05T06:15:22.098Z,976.4496
2018-01-05T06:16:22.084Z,976.4093
2018-01-05T06:17:22.079Z,976.5354
2018-01-05T06:18:22.076Z,976.5059
2018-01-05T06:19:22.133Z,976.428
2018-01-05T06:20:22.073Z,976.5675
2018-01-05T06:21:22.104Z,976.6671
2018-01-05T06:22:22.097Z,976.538
2018-01-05T06:23:22.095Z,976.5701
2018-01-05T06:24:22.080Z,976.5567
2018-01-05T06:25:22.091Z,976.5246
2018-01-05T06:26:22.098Z,976.5112
2018-01-05T06:27:22.091Z,976.4843
2018-01-05T06:28:22.252Z,976.5567
2018-01-05T06:29:22.192Z,976.4762
2018-01-05T06:30:22.111Z,976.5485
2018-01-05T06:31:22.088Z,976.5941
2018-01-05T06:32:22.090Z,976.6046
2018-01-05T06:33:22.096Z,976.5806
2018-01-05T06:34:22.386Z,976.559
2018-01-05T06:35:22.091Z,976.6396
2018-01-05T06:36:22.106Z,976.6582
2018-01-05T06:37:22.100Z,976.5344
2018-01-05T06:38:28.726Z,976.5344
2018-01-05T06:39:22.111Z,976.4703
2018-01-05T06:40:22.095Z,976.5963
2018-01-05T06:41:22.128Z,976.5479
2018-01-05T06:42:22.162Z,976.521
2018-01-05T06:43:22.105Z,976.6285
2018-01-05T06:44:22.114Z,976.5718
2018-01-05T06:45:22.109Z,976.8
2018-01-05T06:46:22.105Z,976.6255
2018-01-05T06:47:22.134Z,976.6793
2018-01-05T06:48:22.136Z,976.5823
2018-01-05T06:49:22.118Z,976.6577
2018-01-05T06:50:22.127Z,976.6144
2018-01-05T06:51:22.104Z,976.6331
2018-01-05T06:52:25.712Z,976.6144
2018-01-05T06:53:22.118Z,976.6655
2018-01-05T06:54:22.117Z,976.7003
2018-01-05T06:55:22.120Z,976.679
2018-01-05T06:56:22.120Z,976.7271
2018-01-05T06:57:22.141Z,976.6488
2018-01-05T06:58:22.118Z,976.7782
2018-01-05T06:59:22.175Z,976.6623
2018-01-05T07:00:22.137Z,976.6273
2018-01-05T07:01:22.264Z,976.6407
2018-01-05T07:02:22.312Z,976.7428
2018-01-05T07:03:22.119Z,976.6378
2018-01-05T07:04:22.113Z,976.7749
2018-01-05T07:05:22.140Z,976.7131
2018-01-05T07:06:22.140Z,976.7235
2018-01-05T07:07:22.146Z,976.6803
2018-01-05T07:08:22.148Z,976.7281
2018-01-05T07:09:22.125Z,976.6636
2018-01-05T07:10:22.140Z,976.696
2018-01-05T07:11:22.134Z,976.7498
2018-01-05T07:12:22.172Z,976.7252
2018-01-05T07:13:29.626Z,976.7788
2018-01-05T07:14:22.135Z,976.7252
2018-01-05T07:15:22.131Z,976.7844
2018-01-05T07:16:22.630Z,976.7844
2018-01-05T07:17:22.150Z,976.7009
2018-01-05T07:18:22.139Z,976.6875
2018-01-05T07:19:22.163Z,976.7009
2018-01-05T07:20:22.236Z,976.666
2018-01-05T07:21:22.300Z,976.7277
2018-01-05T07:22:22.345Z,976.6392
2018-01-05T07:23:22.137Z,976.7032
2018-01-05T07:24:25.870Z,976.6554
2018-01-05T07:25:22.143Z,976.7383
2018-01-05T07:26:23.028Z,976.6981
2018-01-05T07:27:34.154Z,976.7651
2018-01-05T07:28:22.187Z,976.7651
2018-01-05T07:29:22.142Z,976.7353
2018-01-05T07:30:22.147Z,976.7972
2018-01-05T07:31:22.156Z,976.8159
2018-01-05T07:32:22.144Z,976.8831
2018-01-05T07:33:22.148Z,976.8188
2018-01-05T07:34:22.816Z,976.907
2018-01-05T07:35:22.180Z,976.8614
2018-01-05T07:36:22.147Z,976.8585
2018-01-05T07:37:22.150Z,976.9338
2018-01-05T07:38:22.169Z,976.9606
2018-01-05T07:39:22.163Z,976.9255
2018-01-05T07:40:22.157Z,976.9874
2018-01-05T07:41:22.152Z,977.0062
2018-01-05T07:42:22.177Z,977.0009
2018-01-05T07:43:22.178Z,976.9793
2018-01-05T07:44:22.176Z,976.9979
2018-01-05T07:45:22.183Z,977.0165
2018-01-05T07:46:22.163Z,977.0382
2018-01-05T07:47:22.203Z,977.0486
2018-01-05T07:48:22.181Z,977.1321
2018-01-05T07:49:22.185Z,977.0486
2018-01-05T07:50:22.186Z,977.0621
2018-01-05T07:51:22.168Z,977.0837
2018-01-05T07:52:22.201Z,977.1158
2018-01-05T07:53:22.181Z,977.159
2018-01-05T07:54:22.166Z,977.1859
2018-01-05T07:55:22.167Z,977.1724
2018-01-05T07:56:22.199Z,977.1456
2018-01-05T07:57:22.198Z,977.1964
2018-01-05T07:58:22.165Z,977.1694
2018-01-05T07:59:22.181Z,977.1665
2018-01-05T08:00:22.225Z,977.2336
2018-01-05T08:01:22.184Z,977.2068
2018-01-05T08:02:22.207Z,977.1665
2018-01-05T08:03:22.181Z,977.2605
2018-01-05T08:04:22.190Z,977.2955
2018-01-05T08:05:22.182Z,977.2795
2018-01-05T08:06:22.177Z,977.2981
2018-01-05T08:07:22.241Z,977.3063
2018-01-05T08:08:22.175Z,977.2579
2018-01-05T08:09:22.201Z,977.3116
2018-01-05T08:10:22.182Z,977.325
2018-01-05T08:11:22.184Z,977.3168
2018-01-05T08:12:22.218Z,977.3116
2018-01-05T08:13:22.184Z,977.3384
2018-01-05T08:14:22.195Z,977.3407
2018-01-05T08:15:22.342Z,977.3973
2018-01-05T08:16:22.232Z,977.5263
2018-01-05T08:17:22.210Z,977.4726
2018-01-05T08:18:22.188Z,977.3056
2018-01-05T08:19:22.213Z,977.5799
2018-01-05T08:20:22.192Z,977.4562
2018-01-05T08:21:22.228Z,977.5502
2018-01-05T08:22:22.215Z,977.5636
2018-01-05T08:23:22.197Z,977.6091
2018-01-05T08:24:22.200Z,977.5338
2018-01-05T08:25:22.191Z,977.674
2018-01-05T08:26:22.200Z,977.6226
2018-01-05T08:27:22.219Z,977.6896
2018-01-05T08:28:22.200Z,977.5577
2018-01-05T08:29:22.199Z,977.7217
2018-01-05T08:30:22.200Z,977.6248
2018-01-05T08:31:22.234Z,977.7404
2018-01-05T08:32:22.244Z,977.7695
2018-01-05T08:33:22.212Z,977.7322
2018-01-05T08:34:22.210Z,977.6353
2018-01-05T08:35:22.214Z,977.756
2018-01-05T08:36:22.239Z,977.7024
2018-01-05T08:37:22.229Z,977.7695
2018-01-05T08:38:22.227Z,977.7024
2018-01-05T08:39:22.226Z,977.756
2018-01-05T08:40:23.114Z,977.689
2018-01-05T08:41:22.208Z,977.8262
2018-01-05T08:42:22.231Z,977.8179
2018-01-05T08:43:22.208Z,977.944
2018-01-05T08:44:22.240Z,977.8956
2018-01-05T08:45:22.220Z,977.8635
2018-01-05T08:46:22.221Z,978.0081
2018-01-05T08:47:22.243Z,977.9545
2018-01-05T08:48:22.232Z,977.9977
2018-01-05T08:49:22.240Z,977.9947
2018-01-05T08:50:22.271Z,977.9999
2018-01-05T08:51:22.221Z,977.9999
2018-01-05T08:52:22.250Z,978.0618
2018-01-05T08:53:22.232Z,978.0402
2018-01-05T08:54:22.221Z,978.0483
2018-01-05T08:55:22.257Z,978.0723
2018-01-05T08:56:22.217Z,978.0804
2018-01-05T08:57:22.252Z,978.032
2018-01-05T08:58:22.243Z,978.0562
2018-01-05T08:59:22.227Z,978.0723
2018-01-05T09:00:22.245Z,978.0293
2018-01-05T09:01:22.246Z,978.051
2018-01-05T09:02:22.252Z,978.0778
2018-01-05T09:03:22.247Z,978.0159
2018-01-05T09:04:22.229Z,978.1233
2018-01-05T09:05:22.642Z,978.1769
2018-01-05T09:06:24.147Z,978.1233
2018-01-05T09:07:22.255Z,978.1337
2018-01-05T09:08:22.232Z,978.2545
2018-01-05T09:09:22.589Z,978.2628
2018-01-05T09:10:22.240Z,978.3485
2018-01-05T09:11:22.254Z,978.3402
2018-01-05T09:12:22.264Z,978.2411
2018-01-05T09:13:22.238Z,978.2248
2018-01-05T09:14:22.238Z,978.2843
2018-01-05T09:15:22.257Z,978.2277
2018-01-05T09:16:23.464Z,978.2732
2018-01-05T09:17:22.291Z,978.2732
2018-01-05T09:18:22.241Z,978.2918
2018-01-05T09:19:22.241Z,978.2971
2018-01-05T09:20:22.253Z,978.359
2018-01-05T09:21:22.266Z,978.359
2018-01-05T09:22:24.576Z,978.3052
2018-01-05T09:23:22.583Z,978.2837
2018-01-05T09:24:22.351Z,978.3292
2018-01-05T09:25:22.248Z,978.3806
2018-01-05T09:26:22.266Z,978.4447
2018-01-05T09:27:22.421Z,978.4797
2018-01-05T09:28:22.248Z,978.4365
2018-01-05T09:29:22.272Z,978.4767
2018-01-05T09:30:23.158Z,978.4283
2018-01-05T09:31:22.272Z,978.4849
2018-01-05T09:32:22.354Z,978.3828
2018-01-05T09:33:22.301Z,978.4551
2018-01-05T09:34:22.485Z,978.45
2018-01-05T09:35:22.268Z,978.5059
2018-01-05T09:36:23.659Z,978.514
2018-01-05T09:37:22.483Z,978.5274
2018-01-05T09:38:22.306Z,978.5193
2018-01-05T09:39:30.085Z,978.6213
2018-01-05T09:40:22.274Z,978.5461
2018-01-05T09:41:22.267Z,978.5893
2018-01-05T09:42:22.306Z,978.5648
2018-01-05T09:43:22.338Z,978.6266
2018-01-05T09:44:22.268Z,978.5945
2018-01-05T09:45:22.268Z,978.6237
2018-01-05T09:46:22.275Z,978.5886
2018-01-05T09:47:32.303Z,978.5968
2018-01-05T09:48:22.285Z,978.6183
2018-01-05T09:49:22.497Z,978.5968
2018-01-05T09:50:22.300Z,978.6423
2018-01-05T09:51:22.292Z,978.6907
2018-01-05T09:52:22.611Z,978.6557
2018-01-05T09:53:22.336Z,978.7146
2018-01-05T09:54:23.695Z,978.6826
2018-01-05T09:55:22.294Z,978.6609
2018-01-05T09:56:22.303Z,978.6587
2018-01-05T09:57:22.355Z,978.7042
2018-01-05T09:58:22.311Z,978.6721
2018-01-05T09:59:24.547Z,978.7854
2018-01-05T10:00:24.048Z,978.7936
2018-01-05T10:01:22.285Z,978.8771
2018-01-05T10:02:22.284Z,978.9308
2018-01-05T10:03:22.335Z,978.9174
2018-01-05T10:04:22.385Z,978.9659
2018-01-05T10:05:22.289Z,978.9957
2018-01-05T10:06:22.920Z,979.0359
2018-01-05T10:07:22.294Z,979.0009
2018-01-05T10:08:22.316Z,979.0092
2018-01-05T10:09:22.838Z,979.0039
2018-01-05T10:10:22.303Z,979.0896
2018-01-05T10:11:22.322Z,979.0576
2018-01-05T10:12:24.340Z,979.0441
2018-01-05T10:13:22.322Z,979.1191
2018-01-05T10:14:22.294Z,979.0923
2018-01-05T10:15:25.888Z,979.1863
2018-01-05T10:16:31.859Z,979.1649
2018-01-05T10:17:23.480Z,979.1326
2018-01-05T10:18:23.694Z,979.2079
2018-01-05T10:19:22.740Z,979.2589
2018-01-05T10:20:23.740Z,979.1728
2018-01-05T10:21:22.640Z,979.1892
2018-01-05T10:22:23.910Z,979.2534
2018-01-05T10:23:24.555Z,979.2429
2018-01-05T10:24:22.891Z,979.2238
2018-01-05T10:25:23.340Z,979.3473
2018-01-05T10:26:23.884Z,979.3235
2018-01-05T10:27:23.692Z,979.3906
2018-01-05T10:28:25.826Z,979.404
2018-01-05T10:29:22.542Z,979.3265
2018-01-05T10:30:23.592Z,979.3749
2018-01-05T10:31:22.852Z,979.3801
2018-01-05T10:32:22.551Z,979.2832
2018-01-05T10:33:27.023Z,979.3666
2018-01-05T10:34:25.112Z,979.3317
2018-01-05T10:35:22.699Z,979.4368
2018-01-05T10:36:22.512Z,979.4152
2018-01-05T10:37:24.171Z,979.4233
2018-01-05T10:38:25.994Z,979.4263
2018-01-05T10:39:22.934Z,979.451
2018-01-05T10:40:25.108Z,979.4562
2018-01-05T10:41:23.267Z,979.4351
2018-01-05T10:42:22.474Z,979.4835
2018-01-05T10:43:27.486Z,979.5723
2018-01-05T10:44:22.911Z,979.4567
2018-01-05T10:45:23.896Z,979.5349
2018-01-05T10:46:24.664Z,979.5566
2018-01-05T10:47:22.916Z,979.6237
2018-01-05T10:48:22.594Z,979.4924
2018-01-05T10:49:26.107Z,979.6163
2018-01-05T10:50:22.405Z,979.5842
2018-01-05T10:51:23.742Z,979.5387
2018-01-05T10:52:23.427Z,979.5499
2018-01-05T10:53:26.187Z,979.4827
2018-01-05T10:54:26.019Z,979.4559
2018-01-05T10:55:23.579Z,979.5309
2018-01-05T10:56:23.657Z,979.6682
2018-01-05T10:57:25.453Z,979.6465
2018-01-05T10:58:24.306Z,979.6227
2018-01-05T10:59:23.757Z,979.572
2018-01-05T11:00:33.049Z,979.5801
2018-01-05T11:01:23.520Z,979.669
2018-01-05T11:02:27.873Z,979.6741
2018-01-05T11:03:24.014Z,979.7443
2018-01-05T11:04:31.067Z,979.7875
2018-01-05T11:05:25.391Z,979.7368
2018-01-05T11:06:32.013Z,979.7018
2018-01-05T11:07:22.717Z,979.7051
2018-01-05T11:08:30.769Z,979.7453
2018-01-05T11:09:39.878Z,979.6943
2018-01-05T11:10:22.975Z,979.6271
2018-01-05T11:11:28.020Z,979.5868
2018-01-05T11:12:26.568Z,979.5764
2018-01-05T11:13:22.969Z,979.657
2018-01-05T11:14:28.719Z,979.6652
2018-01-05T11:15:38.837Z,979.7271
2018-01-05T11:16:27.311Z,979.6898
2018-01-05T11:17:26.252Z,979.757
2018-01-05T11:18:29.729Z,979.8054
2018-01-05T11:19:22.851Z,979.7704
2018-01-05T11:20:27.296Z,979.8137
2018-01-05T11:21:22.690Z,979.8002
2018-01-05T11:22:31.581Z,979.8248
2018-01-05T11:23:22.736Z,979.8084
2018-01-05T11:24:42.879Z,979.8465
2018-01-05T11:25:35.662Z,979.8868
2018-01-05T11:26:37.090Z,979.8763
2018-01-05T11:27:34.101Z,979.801
2018-01-05T11:28:36.977Z,979.8144
2018-01-05T11:29:47.162Z,979.8708
2018-01-05T11:30:34.503Z,979.9032
2018-01-05T11:31:37.570Z,979.8629
2018-01-05T11:32:34.202Z,979.8629
2018-01-05T11:33:35.044Z,979.9193
2018-01-05T11:34:39.302Z,979.879
2018-01-05T11:35:34.097Z,979.8655
2018-01-05T11:36:34.025Z,979.9193
2018-01-05T11:37:40.302Z,979.9462
2018-01-05T11:38:38.712Z,979.93
2018-01-05T11:39:34.143Z,979.973
2018-01-05T11:40:34.873Z,980.0028
2018-01-05T11:41:34.463Z,979.9521
2018-01-05T11:42:36.813Z,979.9648
2018-01-05T11:43:34.663Z,980.011
2018-01-05T11:44:34.153Z,980.07
2018-01-05T11:45:37.134Z,980.0595
2018-01-05T11:46:41.684Z,980.1102